Time;durP1;ratioP1;P1;durP2;ratioP2;P2;SDS_P1;SDS_P2;PMS_P1;PMS_P2;Temp;Humidity;BMP_temperature;BMP_pressure;BME280_temperature;BME280_humidity;BME280_pressure;Samples;Min_cycle;Max_cycle;Signal;HPM_P1;HPM_P2
2022/08/28 00:00:29;;;;;;;1.20;1.10;;;;;;;;;;4147121;28;20563;-39
2022/08/28 00:02:32;;;;;;;1.20;0.90;;;;;;;;;;4146765;28;20053;-39
2022/08/28 00:04:34;;;;;;;1.77;1.30;;;;;;;;;;4147271;28;20100;-40
2022/08/28 00:06:35;;;;;;;0.90;0.90;;;;;;;;;;4147048;28;20082;-39
2022/08/28 00:08:37;;;;;;;1.23;1.13;;;;;;;;;;4146713;28;20053;-41
2022/08/28 00:10:38;;;;;;;1.20;1.08;;;;;;;;;;4145739;28;20116;-39
2022/08/28 00:12:40;;;;;;;1.23;0.95;;;;;;;;;;4144600;28;20076;-39
2022/08/28 00:14:41;;;;;;;1.38;1.08;;;;;;;;;;4146770;28;20498;-38
2022/08/28 00:16:42;;;;;;;1.20;1.10;;;;;;;;;;4147051;28;20104;-38
2022/08/28 00:18:44;;;;;;;0.90;0.90;;;;;;;;;;4146797;28;20551;-40
2022/08/28 00:20:46;;;;;;;1.00;0.90;;;;;;;;;;4146841;28;20053;-39
2022/08/28 00:22:48;;;;;;;1.08;0.98;;;;;;;;;;4138067;28;20057;-39
2022/08/28 00:24:49;;;;;;;1.17;1.08;;;;;;;;;;4146834;28;20386;-39
2022/08/28 00:29:10;;;;;;;;;;;;;;;;;;4145421;28;20050;-39
2022/08/28 00:31:12;;;;;;;1.08;0.95;;;;;;;;;;4146849;28;19928;-38
2022/08/28 00:33:18;;;;;;;0.98;0.80;;;;;;;;;;4144269;28;20111;-40
2022/08/28 00:35:22;;;;;;;1.45;1.30;;;;;;;;;;4144660;28;20456;-39
2022/08/28 00:37:23;;;;;;;1.85;1.23;;;;;;;;;;4146491;28;20453;-39
2022/08/28 00:39:25;;;;;;;1.10;1.00;;;;;;;;;;4136597;28;20061;-39
2022/08/28 00:41:28;;;;;;;1.17;1.08;;;;;;;;;;4159303;28;20133;-39
2022/08/28 00:43:37;;;;;;;1.10;1.00;;;;;;;;;;4144506;28;20081;-39
2022/08/28 00:45:39;;;;;;;1.20;1.10;;;;;;;;;;4144990;28;20115;-39
2022/08/28 00:47:41;;;;;;;1.30;1.20;;;;;;;;;;4143309;28;20058;-39
2022/08/28 00:49:47;;;;;;;1.05;0.90;;;;;;;;;;4143848;28;20551;-39
2022/08/28 00:52:10;;;;;;;1.30;1.20;;;;;;;;;;4143520;28;20588;-39
2022/08/28 00:54:11;;;;;;;1.35;1.23;;;;;;;;;;4144937;28;20065;-39
2022/08/28 00:56:15;;;;;;;1.02;0.93;;;;;;;;;;4143773;28;20081;-40
2022/08/28 00:58:18;;;;;;;1.13;0.98;;;;;;;;;;4142181;28;20112;-38
2022/08/28 01:00:28;;;;;;;0.90;0.90;;;;;;;;;;4140703;28;20108;-39
2022/08/28 01:02:30;;;;;;;1.17;1.08;;;;;;;;;;4146456;28;20050;-38
2022/08/28 01:04:32;;;;;;;1.27;1.00;;;;;;;;;;4146393;28;20076;-38
2022/08/28 01:06:34;;;;;;;1.10;1.00;;;;;;;;;;4143713;28;20335;-39
2022/08/28 01:08:38;;;;;;;0.85;0.82;;;;;;;;;;4144558;28;20045;-39
2022/08/28 01:10:40;;;;;;;1.02;0.93;;;;;;;;;;4130205;28;20054;-38
2022/08/28 01:12:42;;;;;;;0.88;0.88;;;;;;;;;;4112337;28;20122;-39
2022/08/28 01:14:45;;;;;;;1.00;1.00;;;;;;;;;;4128113;28;20050;-39
2022/08/28 01:16:51;;;;;;;1.02;0.95;;;;;;;;;;4127226;28;20061;-40
2022/08/28 01:18:53;;;;;;;1.17;1.05;;;;;;;;;;4140196;28;20057;-39
2022/08/28 01:21:00;;;;;;;0.80;0.80;;;;;;;;;;4144582;28;20057;-39
2022/08/28 01:23:23;;;;;;;1.13;0.82;;;;;;;;;;4143313;28;20053;-39
2022/08/28 01:25:27;;;;;;;1.05;1.00;;;;;;;;;;4161849;28;20100;-39
2022/08/28 01:27:28;;;;;;;0.77;0.77;;;;;;;;;;4145958;28;20053;-39
2022/08/28 01:29:30;;;;;;;0.95;0.80;;;;;;;;;;4146678;28;20049;-38
2022/08/28 01:31:31;;;;;;;1.27;1.10;;;;;;;;;;4149116;28;20054;-39
2022/08/28 01:33:32;;;;;;;1.13;0.90;;;;;;;;;;4149235;28;20555;-39
2022/08/28 01:35:36;;;;;;;1.27;1.17;;;;;;;;;;4149476;28;20062;-39
2022/08/28 01:37:38;;;;;;;1.05;0.95;;;;;;;;;;4146974;28;20049;-39
2022/08/28 01:39:39;;;;;;;0.90;0.90;;;;;;;;;;4147799;28;20053;-39
2022/08/28 01:41:44;;;;;;;1.20;1.10;;;;;;;;;;4146365;28;20120;-38
2022/08/28 01:43:46;;;;;;;1.10;1.00;;;;;;;;;;4148568;28;20100;-39
2022/08/28 01:45:51;;;;;;;0.85;0.80;;;;;;;;;;4149352;28;20054;-39
2022/08/28 01:47:54;;;;;;;0.82;0.82;;;;;;;;;;4149232;28;20061;-41
2022/08/28 01:49:55;;;;;;;0.80;0.80;;;;;;;;;;4149122;28;20046;-39
2022/08/28 01:51:56;;;;;;;0.90;0.90;;;;;;;;;;4149611;28;20058;-40
2022/08/28 01:53:57;;;;;;;1.25;1.15;;;;;;;;;;4147772;28;20076;-39
2022/08/28 01:56:01;;;;;;;0.85;0.82;;;;;;;;;;4147701;28;20088;-40
2022/08/28 01:58:05;;;;;;;0.93;0.90;;;;;;;;;;4148531;28;20080;-40
2022/08/28 02:00:06;;;;;;;1.05;0.95;;;;;;;;;;4149004;28;20100;-39
2022/08/28 02:02:13;;;;;;;0.95;0.90;;;;;;;;;;4148581;28;20062;-40
2022/08/28 02:04:15;;;;;;;0.80;0.80;;;;;;;;;;4148792;28;20057;-40
2022/08/28 02:06:16;;;;;;;1.00;0.95;;;;;;;;;;4149095;28;20062;-39
2022/08/28 02:08:18;;;;;;;0.70;0.70;;;;;;;;;;4147302;28;20085;-39
2022/08/28 02:10:23;;;;;;;1.20;1.10;;;;;;;;;;4131340;28;20050;-38
2022/08/28 02:12:24;;;;;;;0.80;0.80;;;;;;;;;;4148063;28;20320;-38
2022/08/28 02:14:25;;;;;;;1.40;1.13;;;;;;;;;;4148796;28;20050;-38
2022/08/28 02:16:27;;;;;;;1.17;1.08;;;;;;;;;;4148991;28;20064;-38
2022/08/28 02:18:28;;;;;;;1.13;0.93;;;;;;;;;;4148322;28;20096;-38
2022/08/28 02:20:30;;;;;;;1.30;1.20;;;;;;;;;;4148857;28;20058;-37
2022/08/28 02:22:31;;;;;;;0.90;0.90;;;;;;;;;;4148629;28;20065;-37
2022/08/28 02:24:32;;;;;;;0.85;0.85;;;;;;;;;;4148483;28;20440;-38
2022/08/28 02:26:34;;;;;;;0.82;0.82;;;;;;;;;;4148511;28;20058;-38
2022/08/28 02:28:36;;;;;;;1.13;1.02;;;;;;;;;;4146664;28;20054;-39
2022/08/28 02:30:37;;;;;;;1.05;0.95;;;;;;;;;;4148537;28;20052;-37
2022/08/28 02:32:38;;;;;;;1.15;1.05;;;;;;;;;;4147126;28;20434;-37
2022/08/28 02:34:42;;;;;;;0.75;0.75;;;;;;;;;;4148572;28;20104;-37
2022/08/28 02:36:43;;;;;;;1.10;1.00;;;;;;;;;;4145860;28;20108;-38
2022/08/28 02:38:46;;;;;;;0.80;0.80;;;;;;;;;;4144423;28;20513;-38
2022/08/28 02:40:47;;;;;;;0.73;0.73;;;;;;;;;;4163195;28;20521;-38
2022/08/28 02:42:49;;;;;;;0.70;0.70;;;;;;;;;;4147628;28;20054;-38
2022/08/28 02:44:50;;;;;;;0.88;0.88;;;;;;;;;;4148201;28;20109;-38
2022/08/28 02:46:51;;;;;;;1.10;1.00;;;;;;;;;;4146828;28;20133;-38
2022/08/28 02:48:53;;;;;;;1.77;0.90;;;;;;;;;;4146801;28;20556;-38
2022/08/28 02:51:02;;;;;;;0.98;0.88;;;;;;;;;;4148319;28;20050;-37
2022/08/28 02:53:03;;;;;;;1.48;1.15;;;;;;;;;;4148131;28;20120;-38
2022/08/28 02:55:06;;;;;;;0.80;0.80;;;;;;;;;;4148263;28;20054;-38
2022/08/28 02:57:07;;;;;;;0.90;0.65;;;;;;;;;;4148370;28;20069;-38
2022/08/28 02:59:09;;;;;;;0.82;0.82;;;;;;;;;;4147663;28;20076;-38
2022/08/28 03:01:12;;;;;;;1.00;0.90;;;;;;;;;;4146816;28;20054;-39
2022/08/28 03:03:13;;;;;;;0.88;0.88;;;;;;;;;;4146799;28;20446;-38
2022/08/28 03:05:19;;;;;;;1.00;0.90;;;;;;;;;;4148195;28;20112;-40
2022/08/28 03:07:21;;;;;;;0.82;0.82;;;;;;;;;;4147117;28;20050;-38
2022/08/28 03:09:22;;;;;;;1.05;0.80;;;;;;;;;;4130203;28;20069;-39
2022/08/28 03:11:23;;;;;;;1.20;1.10;;;;;;;;;;4146992;28;20215;-38
2022/08/28 03:13:25;;;;;;;1.05;0.80;;;;;;;;;;4146343;28;20456;-38
2022/08/28 03:15:26;;;;;;;0.63;0.63;;;;;;;;;;4148243;28;20108;-38
2022/08/28 03:17:28;;;;;;;0.70;0.60;;;;;;;;;;4147808;28;20107;-38
2022/08/28 03:19:29;;;;;;;2.80;1.00;;;;;;;;;;4147424;28;20579;-38
2022/08/28 03:21:30;;;;;;;0.70;0.70;;;;;;;;;;4142046;28;20054;-38
2022/08/28 03:23:32;;;;;;;0.95;0.82;;;;;;;;;;4146522;28;20064;-38
2022/08/28 03:25:33;;;;;;;1.02;0.90;;;;;;;;;;4148097;28;20058;-39
2022/08/28 03:27:34;;;;;;;0.70;0.70;;;;;;;;;;4147990;28;20116;-38
2022/08/28 03:29:35;;;;;;;0.70;0.70;;;;;;;;;;4148111;28;20058;-38
2022/08/28 03:31:37;;;;;;;0.95;0.88;;;;;;;;;;4148468;28;20112;-38
2022/08/28 03:33:40;;;;;;;0.70;0.70;;;;;;;;;;4148010;28;20053;-38
2022/08/28 03:35:41;;;;;;;0.85;0.70;;;;;;;;;;4148109;28;20061;-41
2022/08/28 03:37:43;;;;;;;0.85;0.80;;;;;;;;;;4147693;28;20069;-39
2022/08/28 03:39:44;;;;;;;0.70;0.70;;;;;;;;;;4148038;28;20115;-39
2022/08/28 03:41:46;;;;;;;0.70;0.70;;;;;;;;;;4148413;28;20104;-39
2022/08/28 03:43:47;;;;;;;0.60;0.60;;;;;;;;;;4147408;28;20203;-37
2022/08/28 03:45:56;;;;;;;0.93;0.75;;;;;;;;;;4146241;28;20429;-38
2022/08/28 03:47:57;;;;;;;1.00;0.90;;;;;;;;;;4147252;28;20143;-38
2022/08/28 03:49:58;;;;;;;0.77;0.77;;;;;;;;;;4147927;28;20050;-38
2022/08/28 03:52:00;;;;;;;1.20;0.90;;;;;;;;;;4147302;28;20428;-38
2022/08/28 03:54:02;;;;;;;1.20;0.95;;;;;;;;;;4147275;28;20108;-38
2022/08/28 03:56:11;;;;;;;0.98;0.88;;;;;;;;;;4147541;28;20054;-38
2022/08/28 03:58:12;;;;;;;1.02;0.80;;;;;;;;;;4129304;28;20050;-38
2022/08/28 04:00:15;;;;;;;0.63;0.63;;;;;;;;;;4147104;28;20481;-39
2022/08/28 04:02:18;;;;;;;1.35;0.80;;;;;;;;;;4146788;28;20054;-38
2022/08/28 04:04:19;;;;;;;1.55;0.95;;;;;;;;;;4147288;28;20060;-38
2022/08/28 04:06:20;;;;;;;1.13;0.60;;;;;;;;;;4146034;28;20105;-38
2022/08/28 04:08:22;;;;;;;0.80;0.77;;;;;;;;;;4146676;28;20489;-38
2022/08/28 04:10:23;;;;;;;0.73;0.73;;;;;;;;;;4145874;28;20057;-37
2022/08/28 04:12:24;;;;;;;0.70;0.65;;;;;;;;;;4161370;28;20593;-38
2022/08/28 04:14:25;;;;;;;0.65;0.65;;;;;;;;;;4146657;28;20128;-37
2022/08/28 04:16:27;;;;;;;0.70;0.68;;;;;;;;;;4145497;28;20054;-37
2022/08/28 04:18:29;;;;;;;1.15;0.70;;;;;;;;;;4146844;28;20124;-39
2022/08/28 04:20:30;;;;;;;0.80;0.73;;;;;;;;;;4145734;28;20053;-37
2022/08/28 04:22:31;;;;;;;1.33;0.60;;;;;;;;;;4145130;28;20080;-38
2022/08/28 04:24:32;;;;;;;0.82;0.80;;;;;;;;;;4145524;28;20062;-37
2022/08/28 04:26:35;;;;;;;0.77;0.77;;;;;;;;;;4146852;28;20574;-39
2022/08/28 04:28:36;;;;;;;0.93;0.60;;;;;;;;;;4146127;28;20504;-39
2022/08/28 04:30:40;;;;;;;1.08;0.75;;;;;;;;;;4146823;28;20133;-39
2022/08/28 04:32:41;;;;;;;1.23;0.77;;;;;;;;;;4146652;28;20065;-38
2022/08/28 04:34:42;;;;;;;2.08;1.30;;;;;;;;;;4146766;28;20057;-41
2022/08/28 04:36:43;;;;;;;0.88;0.77;;;;;;;;;;4146616;28;20516;-40
2022/08/28 04:38:44;;;;;;;0.68;0.68;;;;;;;;;;4146763;28;20108;-39
2022/08/28 04:40:45;;;;;;;0.85;0.70;;;;;;;;;;4146966;28;20057;-37
2022/08/28 04:42:46;;;;;;;0.70;0.70;;;;;;;;;;4145989;28;20382;-39
2022/08/28 04:44:48;;;;;;;1.00;0.80;;;;;;;;;;4146745;28;20116;-39
2022/08/28 04:46:49;;;;;;;0.77;0.65;;;;;;;;;;4145183;28;20446;-40
2022/08/28 04:48:51;;;;;;;0.90;0.57;;;;;;;;;;4146468;28;20104;-40
2022/08/28 04:50:52;;;;;;;0.55;0.55;;;;;;;;;;4145429;28;20104;-40
2022/08/28 04:52:53;;;;;;;1.15;1.05;;;;;;;;;;4145094;28;20513;-39
2022/08/28 04:54:55;;;;;;;0.60;0.60;;;;;;;;;;4146782;28;20060;-39
2022/08/28 04:56:56;;;;;;;0.80;0.60;;;;;;;;;;4146726;28;20057;-39
2022/08/28 04:58:59;;;;;;;1.17;0.73;;;;;;;;;;4146210;28;20105;-39
2022/08/28 05:01:17;;;;;;;2.35;0.80;;;;;;;;;;4137918;28;20135;-40
2022/08/28 05:03:18;;;;;;;0.60;0.60;;;;;;;;;;4133424;28;20120;-38
2022/08/28 05:05:19;;;;;;;0.70;0.70;;;;;;;;;;4115933;28;20062;-38
2022/08/28 05:07:21;;;;;;;1.67;0.98;;;;;;;;;;4133074;28;20092;-38
2022/08/28 05:09:22;;;;;;;0.70;0.60;;;;;;;;;;4133598;28;20069;-38
2022/08/28 05:11:25;;;;;;;1.75;1.10;;;;;;;;;;4133527;28;20062;-39
2022/08/28 05:13:26;;;;;;;0.60;0.60;;;;;;;;;;4132915;28;20050;-40
2022/08/28 05:15:28;;;;;;;0.70;0.70;;;;;;;;;;4133227;28;20136;-39
2022/08/28 05:17:29;;;;;;;0.70;0.60;;;;;;;;;;4133443;28;20054;-39
2022/08/28 05:19:31;;;;;;;0.68;0.68;;;;;;;;;;4133089;28;20101;-39
2022/08/28 05:21:32;;;;;;;1.00;0.90;;;;;;;;;;4133006;28;20560;-39
2022/08/28 05:23:33;;;;;;;0.93;0.80;;;;;;;;;;4131850;28;20054;-40
2022/08/28 05:25:36;;;;;;;0.98;0.70;;;;;;;;;;4133262;28;20101;-39
2022/08/28 05:27:39;;;;;;;1.17;0.90;;;;;;;;;;4132539;28;20184;-38
2022/08/28 05:29:40;;;;;;;0.60;0.55;;;;;;;;;;4133090;28;20109;-39
2022/08/28 05:31:41;;;;;;;1.00;0.90;;;;;;;;;;4133057;28;20096;-39
2022/08/28 05:33:43;;;;;;;0.60;0.60;;;;;;;;;;4133118;28;20108;-39
2022/08/28 05:35:45;;;;;;;0.63;0.63;;;;;;;;;;4131826;28;20070;-39
2022/08/28 05:37:46;;;;;;;0.70;0.40;;;;;;;;;;4132763;28;20450;-38
2022/08/28 05:39:48;;;;;;;0.90;0.80;;;;;;;;;;4132771;28;20271;-39
2022/08/28 05:41:49;;;;;;;2.33;0.68;;;;;;;;;;4131963;28;20055;-43
2022/08/28 05:43:52;;;;;;;0.68;0.65;;;;;;;;;;4132327;28;20054;-39
2022/08/28 05:45:58;;;;;;;0.60;0.60;;;;;;;;;;4132940;28;20434;-40
2022/08/28 05:48:00;;;;;;;0.75;0.63;;;;;;;;;;4132728;28;20063;-39
2022/08/28 05:50:02;;;;;;;0.80;0.80;;;;;;;;;;4123116;28;20054;-39
2022/08/28 05:52:03;;;;;;;0.80;0.80;;;;;;;;;;4149002;28;20061;-39
2022/08/28 05:54:04;;;;;;;0.55;0.55;;;;;;;;;;4148921;28;20053;-39
2022/08/28 05:56:10;;;;;;;0.82;0.80;;;;;;;;;;4149098;28;20053;-39
2022/08/28 05:58:30;;;;;;;0.73;0.73;;;;;;;;;;4148337;28;20065;-39
2022/08/28 06:00:31;;;;;;;1.17;0.70;;;;;;;;;;4149158;28;20265;-39
2022/08/28 06:02:33;;;;;;;0.68;0.68;;;;;;;;;;4148582;28;20058;-40
2022/08/28 06:04:38;;;;;;;0.75;0.63;;;;;;;;;;4148792;28;20057;-39
2022/08/28 06:06:41;;;;;;;0.70;0.70;;;;;;;;;;4148789;28;20464;-39
2022/08/28 06:08:42;;;;;;;0.68;0.63;;;;;;;;;;4148369;28;20460;-39
2022/08/28 06:10:43;;;;;;;0.88;0.77;;;;;;;;;;4147777;28;20403;-39
2022/08/28 06:12:45;;;;;;;0.95;0.70;;;;;;;;;;4145330;28;20065;-39
2022/08/28 06:14:46;;;;;;;0.70;0.70;;;;;;;;;;4146694;28;20068;-39
2022/08/28 06:16:51;;;;;;;1.20;0.80;;;;;;;;;;4147149;28;20054;-39
2022/08/28 06:18:52;;;;;;;0.88;0.70;;;;;;;;;;4146954;28;20080;-40
2022/08/28 06:20:53;;;;;;;0.60;0.60;;;;;;;;;;4146949;28;20062;-39
2022/08/28 06:22:55;;;;;;;0.70;0.60;;;;;;;;;;4146635;28;20100;-39
2022/08/28 06:24:57;;;;;;;1.00;0.68;;;;;;;;;;4146403;28;20062;-40
2022/08/28 06:26:58;;;;;;;0.63;0.60;;;;;;;;;;4146596;28;20072;-39
2022/08/28 06:29:04;;;;;;;1.02;0.70;;;;;;;;;;4144937;28;20092;-40
2022/08/28 06:31:06;;;;;;;0.80;0.60;;;;;;;;;;4146707;28;20054;-38
2022/08/28 06:33:08;;;;;;;1.00;0.90;;;;;;;;;;4146373;28;20093;-39
2022/08/28 06:35:10;;;;;;;0.73;0.60;;;;;;;;;;4145453;28;20096;-38
2022/08/28 06:37:12;;;;;;;0.63;0.60;;;;;;;;;;4146485;28;20058;-39
2022/08/28 06:39:13;;;;;;;0.68;0.60;;;;;;;;;;4146385;28;20104;-39
2022/08/28 06:41:15;;;;;;;0.98;0.80;;;;;;;;;;4146792;28;20049;-38
2022/08/28 06:43:18;;;;;;;0.50;0.50;;;;;;;;;;4146325;28;20122;-38
2022/08/28 06:45:19;;;;;;;0.82;0.68;;;;;;;;;;4146292;28;20108;-39
2022/08/28 06:47:20;;;;;;;1.83;0.88;;;;;;;;;;4146313;28;20054;-39
2022/08/28 06:49:21;;;;;;;0.73;0.65;;;;;;;;;;4146159;28;20270;-38
2022/08/28 06:51:22;;;;;;;0.60;0.60;;;;;;;;;;4146219;28;20068;-38
2022/08/28 06:53:27;;;;;;;0.77;0.77;;;;;;;;;;4146371;28;20111;-39
2022/08/28 06:55:28;;;;;;;0.60;0.60;;;;;;;;;;4146205;28;20152;-39
2022/08/28 06:57:30;;;;;;;0.80;0.70;;;;;;;;;;4144370;28;20501;-38
2022/08/28 06:59:32;;;;;;;0.73;0.73;;;;;;;;;;4146286;28;20057;-40
2022/08/28 07:01:35;;;;;;;3.47;0.77;;;;;;;;;;4146664;28;20058;-39
2022/08/28 07:03:37;;;;;;;0.50;0.50;;;;;;;;;;4147634;28;20061;-38
2022/08/28 07:05:38;;;;;;;0.68;0.65;;;;;;;;;;4147958;28;20415;-38
2022/08/28 07:07:39;;;;;;;0.50;0.50;;;;;;;;;;4147756;28;20053;-38
2022/08/28 07:09:41;;;;;;;0.70;0.70;;;;;;;;;;4148163;28;20058;-38
2022/08/28 07:11:45;;;;;;;2.55;0.70;;;;;;;;;;4147987;28;20453;-38
2022/08/28 07:13:47;;;;;;;0.73;0.60;;;;;;;;;;4147301;28;20211;-38
2022/08/28 07:15:49;;;;;;;0.70;0.70;;;;;;;;;;4147776;28;20112;-38
2022/08/28 07:17:50;;;;;;;0.60;0.50;;;;;;;;;;4146450;28;20568;-38
2022/08/28 07:19:52;;;;;;;1.25;0.65;;;;;;;;;;4146467;28;20049;-38
2022/08/28 07:21:54;;;;;;;1.10;0.70;;;;;;;;;;4147593;28;20061;-38
2022/08/28 07:23:55;;;;;;;0.68;0.68;;;;;;;;;;4146182;28;20088;-38
2022/08/28 07:25:56;;;;;;;0.85;0.80;;;;;;;;;;4146238;28;20057;-39
2022/08/28 07:27:58;;;;;;;1.00;0.70;;;;;;;;;;4147214;28;20401;-37
2022/08/28 07:30:00;;;;;;;0.73;0.68;;;;;;;;;;4147527;28;20053;-41
2022/08/28 07:32:02;;;;;;;0.60;0.52;;;;;;;;;;4147594;28;20054;-39
2022/08/28 07:34:04;;;;;;;0.80;0.63;;;;;;;;;;4147585;28;20050;-38
2022/08/28 07:36:07;;;;;;;1.52;0.60;;;;;;;;;;4147345;28;20050;-39
2022/08/28 07:38:08;;;;;;;0.77;0.65;;;;;;;;;;4147252;28;20053;-38
2022/08/28 07:40:10;;;;;;;0.60;0.60;;;;;;;;;;4113826;28;20470;-38
2022/08/28 07:44:47;;;;;;;0.60;0.50;;;;;;;;;;4147538;28;20127;-38
2022/08/28 07:44:48;;;;;;;0.73;0.50;;;;;;;;;;4147273;28;20207;-39
2022/08/28 07:46:58;;;;;;;0.70;0.70;;;;;;;;;;4147468;28;20054;-38
2022/08/28 07:48:59;;;;;;;1.10;0.68;;;;;;;;;;4147003;28;20065;-39
2022/08/28 07:51:01;;;;;;;0.93;0.60;;;;;;;;;;4147299;28;20060;-39
2022/08/28 07:53:03;;;;;;;0.60;0.60;;;;;;;;;;4147051;28;20058;-39
2022/08/28 07:55:05;;;;;;;0.55;0.55;;;;;;;;;;4147103;28;20058;-39
2022/08/28 07:57:08;;;;;;;1.23;0.70;;;;;;;;;;4147116;28;20112;-39
2022/08/28 07:59:10;;;;;;;0.70;0.50;;;;;;;;;;4140473;28;20108;-38
2022/08/28 08:01:12;;;;;;;0.50;0.50;;;;;;;;;;4143694;28;20413;-39
2022/08/28 08:03:13;;;;;;;1.15;0.82;;;;;;;;;;4128792;28;20117;-39
2022/08/28 08:05:14;;;;;;;0.57;0.57;;;;;;;;;;4144055;28;20062;-39
2022/08/28 08:07:16;;;;;;;0.60;0.50;;;;;;;;;;4128903;28;20128;-40
2022/08/28 08:09:18;;;;;;;0.60;0.60;;;;;;;;;;4128768;28;20178;-39
2022/08/28 08:11:19;;;;;;;1.13;0.52;;;;;;;;;;4143697;28;20057;-39
2022/08/28 08:13:20;;;;;;;0.80;0.50;;;;;;;;;;4128630;28;20062;-39
2022/08/28 08:15:22;;;;;;;0.50;0.50;;;;;;;;;;4128755;28;20077;-39
2022/08/28 08:17:23;;;;;;;1.67;0.52;;;;;;;;;;4129030;28;20065;-39
2022/08/28 08:19:24;;;;;;;0.60;0.38;;;;;;;;;;4129076;28;20054;-39
2022/08/28 08:21:27;;;;;;;0.63;0.50;;;;;;;;;;4129080;28;20105;-39
2022/08/28 08:23:28;;;;;;;1.02;0.70;;;;;;;;;;4128905;28;20054;-38
2022/08/28 08:25:29;;;;;;;0.75;0.60;;;;;;;;;;4128878;28;20066;-40
2022/08/28 08:27:32;;;;;;;0.70;0.60;;;;;;;;;;4128625;28;20054;-38
2022/08/28 08:29:34;;;;;;;0.60;0.60;;;;;;;;;;4129303;28;20058;-40
2022/08/28 08:31:35;;;;;;;0.60;0.40;;;;;;;;;;4143711;28;20058;-41
2022/08/28 08:33:38;;;;;;;0.88;0.50;;;;;;;;;;4128289;28;20050;-39
2022/08/28 08:35:39;;;;;;;0.60;0.57;;;;;;;;;;4128240;28;20382;-40
2022/08/28 08:37:40;;;;;;;2.42;0.63;;;;;;;;;;4127192;28;20401;-39
2022/08/28 08:39:42;;;;;;;1.30;0.55;;;;;;;;;;4128559;28;20568;-40
2022/08/28 08:41:50;;;;;;;9.73;0.90;;;;;;;;;;4127162;28;20136;-39
2022/08/28 08:44:12;;;;;;;3.83;0.50;;;;;;;;;;4128291;28;20521;-39
2022/08/28 08:46:13;;;;;;;2.97;1.00;;;;;;;;;;4127541;28;20104;-40
2022/08/28 08:48:31;;;;;;;3.22;1.05;;;;;;;;;;4142166;28;20461;-39
2022/08/28 08:50:34;;;;;;;3.22;0.90;;;;;;;;;;4145552;28;20061;-39
2022/08/28 08:52:44;;;;;;;4.95;0.82;;;;;;;;;;4145396;28;20057;-39
2022/08/28 08:55:03;;;;;;;2.97;0.70;;;;;;;;;;4146574;28;20520;-39
2022/08/28 08:57:04;;;;;;;7.72;1.48;;;;;;;;;;4145135;28;20050;-38
2022/08/28 08:59:09;;;;;;;6.57;0.80;;;;;;;;;;4144937;28;20046;-39
2022/08/28 09:01:24;;;;;;;4.50;0.82;;;;;;;;;;4146291;28;20395;-39
2022/08/28 09:04:01;;;;;;;4.32;0.98;;;;;;;;;;4146371;28;20165;-39
2022/08/28 09:06:04;;;;;;;4.57;0.82;;;;;;;;;;4146285;28;20058;-40
2022/08/28 09:08:06;;;;;;;3.72;0.88;;;;;;;;;;4146299;28;20049;-39
2022/08/28 09:10:11;;;;;;;3.60;0.82;;;;;;;;;;4129098;28;20091;-38
2022/08/28 09:12:19;;;;;;;5.65;1.23;;;;;;;;;;4146228;28;20445;-39
2022/08/28 09:14:26;;;;;;;3.28;0.85;;;;;;;;;;4145019;28;20115;-39
2022/08/28 09:16:46;;;;;;;3.20;0.90;;;;;;;;;;4145076;28;20054;-38
2022/08/28 09:18:47;;;;;;;;;;;;;;;;;;4145838;28;20053;-38
2022/08/28 09:20:50;;;;;;;3.95;1.00;;;;;;;;;;4145037;28;19983;-39
2022/08/28 09:22:51;;;;;;;5.30;1.23;;;;;;;;;;4145007;28;20513;-39
2022/08/28 09:24:52;;;;;;;1.92;0.60;;;;;;;;;;4146493;28;20054;-40
2022/08/28 09:27:22;;;;;;;3.38;0.90;;;;;;;;;;4146285;28;20116;-39
2022/08/28 09:29:28;;;;;;;;;;;;;;;;;;4147191;28;20061;-38
2022/08/28 09:31:33;;;;;;;6.93;0.90;;;;;;;;;;4146625;28;19979;-38
2022/08/28 09:33:40;;;;;;;2.15;0.90;;;;;;;;;;4146326;28;20069;-38
2022/08/28 09:35:42;;;;;;;2.13;0.98;;;;;;;;;;4146342;28;20145;-38
2022/08/28 09:37:43;;;;;;;8.93;1.08;;;;;;;;;;4146214;28;20053;-39
2022/08/28 09:39:44;;;;;;;4.20;0.98;;;;;;;;;;4144792;28;20065;-38
2022/08/28 09:44:14;;;;;;;2.38;0.85;;;;;;;;;;4144673;28;20061;-39
2022/08/28 09:46:21;;;;;;;3.83;1.20;;;;;;;;;;4148080;28;20137;-38
2022/08/28 09:48:37;;;;;;;3.72;1.02;;;;;;;;;;4149136;28;20076;-38
2022/08/28 09:50:41;;;;;;;2.80;0.80;;;;;;;;;;4149395;28;20116;-38
2022/08/28 09:52:42;;;;;;;6.80;1.08;;;;;;;;;;4146639;28;20065;-38
2022/08/28 09:54:44;;;;;;;2.70;0.90;;;;;;;;;;4147229;28;20553;-39
2022/08/28 09:56:47;;;;;;;4.43;1.45;;;;;;;;;;4147317;28;20061;-39
2022/08/28 09:58:56;;;;;;;3.78;0.82;;;;;;;;;;4147105;28;20422;-38
2022/08/28 10:01:25;;;;;;;1.87;0.70;;;;;;;;;;4145636;28;20571;-39
2022/08/28 10:03:36;;;;;;;5.32;0.88;;;;;;;;;;4146898;28;20050;-38
2022/08/28 10:05:44;;;;;;;7.82;0.70;;;;;;;;;;4145791;28;20103;-40
2022/08/28 10:07:50;;;;;;;4.88;1.00;;;;;;;;;;4145714;28;20046;-39
2022/08/28 10:10:01;;;;;;;1.77;1.00;;;;;;;;;;4147316;28;20413;-39
2022/08/28 10:12:07;;;;;;;6.18;1.38;;;;;;;;;;4146980;28;20572;-38
2022/08/28 10:14:30;;;;;;;3.45;0.68;;;;;;;;;;4146793;28;20061;-38
2022/08/28 10:16:42;;;;;;;4.07;0.63;;;;;;;;;;4147221;28;20112;-38
2022/08/28 10:19:10;;;;;;;4.90;0.90;;;;;;;;;;4147140;28;20108;-39
2022/08/28 10:21:20;;;;;;;2.08;0.70;;;;;;;;;;4145860;28;20053;-39
2022/08/28 10:23:40;;;;;;;2.08;0.75;;;;;;;;;;4145305;28;20055;-39
2022/08/28 10:25:51;;;;;;;1.63;0.80;;;;;;;;;;4146991;28;20504;-39
2022/08/28 10:28:09;;;;;;;3.58;0.70;;;;;;;;;;4146402;28;20100;-38
2022/08/28 10:30:15;;;;;;;2.58;0.90;;;;;;;;;;4145336;28;20136;-39
2022/08/28 10:32:32;;;;;;;3.35;0.70;;;;;;;;;;4130172;28;20062;-39
2022/08/28 10:34:48;;;;;;;1.52;0.70;;;;;;;;;;4130465;28;20101;-39
2022/08/28 10:37:02;;;;;;;3.15;1.20;;;;;;;;;;4129151;28;20058;-39
2022/08/28 10:39:14;;;;;;;4.85;1.35;;;;;;;;;;4113285;28;20073;-39
2022/08/28 10:41:20;;;;;;;2.22;0.80;;;;;;;;;;4150066;28;20481;-39
2022/08/28 10:43:36;;;;;;;2.60;1.00;;;;;;;;;;4146373;28;20536;-38
2022/08/28 10:45:38;;;;;;;4.22;1.02;;;;;;;;;;4146780;28;20092;-39
2022/08/28 10:47:45;;;;;;;6.40;1.08;;;;;;;;;;4130569;28;20074;-39
2022/08/28 10:49:48;;;;;;;5.35;0.93;;;;;;;;;;4148513;28;20053;-38
2022/08/28 10:51:54;;;;;;;4.38;0.90;;;;;;;;;;4146709;28;20062;-38
2022/08/28 10:54:01;;;;;;;3.47;0.70;;;;;;;;;;4146504;28;20432;-39
2022/08/28 10:56:07;;;;;;;6.90;0.90;;;;;;;;;;4147920;28;20058;-39
2022/08/28 10:58:12;;;;;;;1.73;0.60;;;;;;;;;;4145672;28;20512;-38
2022/08/28 11:00:17;;;;;;;4.20;0.70;;;;;;;;;;4147835;28;20077;-38
2022/08/28 11:02:21;;;;;;;4.30;0.80;;;;;;;;;;4147744;28;20124;-40
2022/08/28 11:04:23;;;;;;;2.53;0.73;;;;;;;;;;4147839;28;20054;-38
2022/08/28 11:06:46;;;;;;;3.88;0.90;;;;;;;;;;4148030;28;20058;-40
2022/08/28 11:08:56;;;;;;;2.83;0.85;;;;;;;;;;4147584;28;20050;-38
2022/08/28 11:10:59;;;;;;;3.90;0.63;;;;;;;;;;4146813;28;20060;-38
2022/08/28 11:13:04;;;;;;;3.63;0.95;;;;;;;;;;4146020;28;20419;-38
2022/08/28 11:15:38;;;;;;;5.88;0.98;;;;;;;;;;4147737;28;20073;-39
2022/08/28 11:17:40;;;;;;;4.32;0.70;;;;;;;;;;4147600;28;20057;-38
2022/08/28 11:19:52;;;;;;;1.60;0.80;;;;;;;;;;4147526;28;20413;-38
2022/08/28 11:22:09;;;;;;;2.03;0.60;;;;;;;;;;4147596;28;20065;-39
2022/08/28 11:24:29;;;;;;;1.25;0.65;;;;;;;;;;4146384;28;20405;-39
2022/08/28 11:27:17;;;;;;;1.80;0.70;;;;;;;;;;4146485;28;20100;-38
2022/08/28 11:29:56;;;;;;;2.15;0.70;;;;;;;;;;4139091;28;20054;-38
2022/08/28 11:32:32;;;;;;;1.15;0.77;;;;;;;;;;4153958;28;20057;-38
2022/08/28 11:34:59;;;;;;;4.43;1.30;;;;;;;;;;4147410;28;20058;-39
2022/08/28 11:37:01;;;;;;;2.00;0.50;;;;;;;;;;4147412;28;20050;-38
2022/08/28 11:39:04;;;;;;;1.67;0.70;;;;;;;;;;4147498;28;20119;-40
2022/08/28 11:41:13;;;;;;;1.20;0.65;;;;;;;;;;4147238;28;20413;-38
2022/08/28 11:43:14;;;;;;;1.90;1.02;;;;;;;;;;4147200;28;20053;-38
2022/08/28 11:45:41;;;;;;;2.15;0.73;;;;;;;;;;4147329;28;20361;-38
2022/08/28 11:47:44;;;;;;;4.68;1.20;;;;;;;;;;4146884;28;20053;-39
2022/08/28 11:49:45;;;;;;;5.97;1.30;;;;;;;;;;4147320;28;20046;-39
2022/08/28 11:52:03;;;;;;;3.75;1.10;;;;;;;;;;4147305;28;20050;-38
2022/08/28 11:54:27;;;;;;;3.88;1.50;;;;;;;;;;4147405;28;20395;-39
2022/08/28 11:56:39;;;;;;;3.67;1.20;;;;;;;;;;4145998;28;20053;-38
2022/08/28 11:59:10;;;;;;;3.58;1.27;;;;;;;;;;4146665;28;20053;-39
2022/08/28 12:01:13;;;;;;;6.20;1.70;;;;;;;;;;4146452;28;20112;-39
2022/08/28 12:03:23;;;;;;;6.70;1.73;;;;;;;;;;4129636;28;20069;-38
2022/08/28 12:05:30;;;;;;;5.93;1.60;;;;;;;;;;4147123;28;20466;-39
2022/08/28 12:07:39;;;;;;;7.88;2.17;;;;;;;;;;4146192;28;20058;-38
2022/08/28 12:09:43;;;;;;;5.70;2.00;;;;;;;;;;4145152;28;20057;-38
2022/08/28 12:11:44;;;;;;;4.20;1.80;;;;;;;;;;4147230;28;20540;-39
2022/08/28 12:13:49;;;;;;;6.25;2.45;;;;;;;;;;4146900;28;20053;-38
2022/08/28 12:16:06;;;;;;;6.32;2.17;;;;;;;;;;4145598;28;20386;-38
2022/08/28 12:18:09;;;;;;;9.25;2.35;;;;;;;;;;4147328;28;20050;-41
2022/08/28 12:20:18;;;;;;;7.32;2.58;;;;;;;;;;4146880;28;20058;-39
2022/08/28 12:22:22;;;;;;;7.72;2.80;;;;;;;;;;4145965;28;20088;-38
2022/08/28 12:24:23;;;;;;;9.00;3.00;;;;;;;;;;4147211;28;20413;-39
2022/08/28 12:26:28;;;;;;;10.82;3.38;;;;;;;;;;4147196;28;20065;-39
2022/08/28 12:28:38;;;;;;;11.73;3.80;;;;;;;;;;4143719;28;20117;-38
2022/08/28 12:31:05;;;;;;;8.50;3.13;;;;;;;;;;4129552;28;20398;-39
2022/08/28 12:33:20;;;;;;;13.63;4.30;;;;;;;;;;4130897;28;20112;-39